YMAVYMML

Guest
Details From YMAV - Avalon
To YMML - Melbourne Intl
Flight Number -
Tags generated
Created
Modified
Stats Distance 29 nm / 54 km
Max Altitude 0 ft / 0 m
Waypoints 3
Social Downloads 6
Likes 0
Share VATSIM

Download

Looking for another format? Having issues loading an existing format? Contact us
Advertisement - Login to hide

Notes

Basic altitude profile: - Ascent Rate: 2500ft/min - Ascent Speed: 250kts - Cruise Altitude: 35000ft - Cruise Speed: 420kts - Descent Rate: 1500ft/min - Descent Speed: 250kts Options: - Use NATs: yes - Use PACOTS: yes - Use low airways: yes - Use high airways: yes

Route

YMAV ML YMML

ID Type Via Altitude Latitude Longitude Leg Dist Tot Dist Heading (true) Name
O YMAV APT - 0 ft / 0 m -38.04084˚ 144.46713˚ - 0 nm - Avalon
ML VOR - 0 ft / 0 m -37.66000˚ 144.84194˚ 28 nm 28 nm 38° / 38° MELBOURNE VOR-DME
O YMML APT - 0 ft / 0 m -37.66530˚ 144.83667˚ 0 nm 29 nm 218° / 218° Melbourne Intl

Altitude Profile

Advertisement - Login to hide

YMAV

Details ICAO YMAV (AVV)
Name Avalon
Region Australia
Timezone Australia/Melbourne (UTC+10.0)
Stats Elevation 35 ft / 11 m (AMSL)
Location -38.040844° 144.467132°
Runways 1
Magnetic Variation 11.478° E

METAR

YMAV 252030Z AUTO 32006KT 9999 // NCD 02/02 Q1027 RF00.0/000.0

Decode

TAF

TAF YMAV 251702Z 2518/2618 33005KT CAVOK FM252200 02008KT CAVOK PROB30 2518/2523 3000 BR

Decode

Departure Runways

ID Width Length Bearing (true) Bearing (mag) Surface Threshold Offset Overrun Length
18 148 ft / 45 m 10,010 ft / 3,051 m 187.50° 176.02° Asphalt 0 ft / 0 m 797 ft / 243 m
36 148 ft / 45 m 10,010 ft / 3,051 m 7.50° 356.02° Asphalt 0 ft / 0 m 1,010 ft / 308 m

YMML

Details ICAO YMML (MEL)
Name Melbourne Intl
Region Australia
Timezone Australia/Melbourne (UTC+10.0)
Stats Elevation 433 ft / 132 m (AMSL)
Location -37.665301° 144.836668°
Runways 2
Magnetic Variation 11.508° E

METAR

YMML 252030Z 36002KT CAVOK 03/03 Q1027 NOSIG

Decode

TAF

TAF YMML 251702Z 2518/2624 36008KT CAVOK FM260000 36015G25KT CAVOK FM260800 36012KT CAVOK

Decode

Destination Runways

ID Width Length Bearing (true) Bearing (mag) Surface Threshold Offset Overrun Length
09 148 ft / 45 m 7,494 ft / 2,284 m 94.01° 82.50° Asphalt 0 ft / 0 m 0 ft / 0 m
16 148 ft / 45 m 12,008 ft / 3,660 m 171.02° 159.51° Asphalt 98 ft / 30 m 0 ft / 0 m
27 148 ft / 45 m 7,494 ft / 2,284 m 274.00° 262.49° Asphalt 0 ft / 0 m 0 ft / 0 m
34 148 ft / 45 m 12,008 ft / 3,660 m 351.01° 339.50° Asphalt 98 ft / 30 m 0 ft / 0 m

Approach Navaids

Runway Type Ident Frequency Range Bearing (true) Bearing (mag) Slope Elevation
16 Localiser IMS 109.70 MHz 18 nm / 33 km 171.57° 160.06° - 433 ft / 132 m (AMSL)
16 Glidescope IMS 109.70 MHz 10 nm / 19 km 171.02° 159.51° 3.00° 433 ft / 132 m (AMSL)
27 Localiser IMW 109.30 MHz 18 nm / 33 km 274.13° 262.62° - 433 ft / 132 m (AMSL)
27 Glidescope IMW 109.30 MHz 10 nm / 19 km 274.00° 262.50° 3.00° 433 ft / 132 m (AMSL)

Popular Alternatives